Time;durP1;ratioP1;P1;durP2;ratioP2;P2;SDS_P1;SDS_P2;PMS_P1;PMS_P2;Temp;Humidity;BMP_temperature;BMP_pressure;BME280_temperature;BME280_humidity;BME280_pressure;Samples;Min_cycle;Max_cycle;Signal;HPM_P1;HPM_P2
2021/08/27 00:01:49;;;;;;;15.55;6.30;;;18.00;92.10;;;;;;5092742;28;20454;-77
2021/08/27 00:04:14;;;;;;;13.90;6.07;;;17.90;92.30;;;;;;5110831;28;20031;-77
2021/08/27 00:06:40;;;;;;;11.10;5.43;;;17.80;92.40;;;;;;5110749;28;20377;-76
2021/08/27 00:09:06;;;;;;;12.75;5.28;;;17.80;92.50;;;;;;5092525;28;20115;-77
2021/08/27 00:11:31;;;;;;;16.38;5.60;;;17.80;92.60;;;;;;5092685;28;20039;-76
2021/08/27 00:13:57;;;;;;;12.20;5.50;;;17.70;92.70;;;;;;5092206;28;20028;-76
2021/08/27 00:16:23;;;;;;;14.27;6.35;;;17.70;92.70;;;;;;5110496;28;20037;-76
2021/08/27 00:18:48;;;;;;;12.65;6.10;;;17.70;92.80;;;;;;5092324;28;20390;-76
2021/08/27 00:21:14;;;;;;;13.10;5.78;;;17.70;92.90;;;;;;5075540;28;20082;-77
2021/08/27 00:23:40;;;;;;;15.52;6.40;;;17.80;92.90;;;;;;5110472;28;20027;-78
2021/08/27 00:26:05;;;;;;;12.57;5.88;;;17.80;92.80;;;;;;5110207;28;20030;-76
2021/08/27 00:28:31;;;;;;;14.15;5.18;;;17.90;92.90;;;;;;5109585;28;20093;-77
2021/08/27 00:30:57;;;;;;;12.48;5.22;;;18.00;92.90;;;;;;5092105;28;20028;-76
2021/08/27 00:33:24;;;;;;;15.57;6.13;;;18.00;92.90;;;;;;5091765;28;20177;-77
2021/08/27 00:35:51;;;;;;;13.52;6.43;;;18.10;92.90;;;;;;5110131;28;20218;-77
2021/08/27 00:38:17;;;;;;;13.60;5.97;;;18.20;92.90;;;;;;5091723;28;20028;-77
2021/08/27 00:40:43;;;;;;;13.43;6.60;;;18.30;92.80;;;;;;5091549;28;20044;-78
2021/08/27 00:43:12;;;;;;;14.38;7.05;;;18.30;92.70;;;;;;5091696;28;20024;-77
2021/08/27 00:45:38;;;;;;;14.40;6.95;;;18.30;92.70;;;;;;5110108;28;20049;-76
2021/08/27 00:48:04;;;;;;;14.75;6.45;;;18.30;92.80;;;;;;5109872;28;20020;-77
2021/08/27 00:50:30;;;;;;;12.75;6.45;;;18.30;92.80;;;;;;5091554;28;20032;-78
2021/08/27 00:52:56;;;;;;;14.70;7.38;;;18.30;92.70;;;;;;5091636;28;20055;-77
2021/08/27 00:55:22;;;;;;;17.10;8.02;;;18.30;92.80;;;;;;5091746;28;20028;-77
2021/08/27 00:57:48;;;;;;;14.23;7.20;;;18.20;92.90;;;;;;5091318;28;20634;-77
2021/08/27 01:00:14;;;;;;;18.88;8.52;;;18.00;93.10;;;;;;5091374;28;20027;-77
2021/08/27 01:02:40;;;;;;;;;;;17.90;93.20;;;;;;5110255;28;20028;-76
2021/08/27 01:05:08;;;;;;;14.82;8.07;;;17.90;93.20;;;;;;5109714;28;19903;-77
2021/08/27 01:08:11;;;;;;;20.02;8.68;;;17.90;93.10;;;;;;5091168;28;20419;-76
2021/08/27 01:10:42;;;;;;;19.27;9.52;;;17.80;93.30;;;;;;5109494;28;20035;-77
2021/08/27 01:13:29;;;;;;;16.08;8.70;;;17.70;93.20;;;;;;5091106;28;20253;-77
2021/08/27 01:16:07;;;;;;;16.20;7.97;;;17.60;93.40;;;;;;5109368;28;20060;-76
2021/08/27 01:18:58;;;;;;;16.65;7.25;;;17.60;93.40;;;;;;5109358;28;20042;-76
2021/08/27 01:22:07;;;;;;;17.85;7.60;;;17.50;93.60;;;;;;5109271;28;20047;-76
2021/08/27 01:24:33;;;;;;;13.75;7.07;;;17.40;93.70;;;;;;5091061;28;20031;-78
2021/08/27 01:27:03;;;;;;;20.25;7.97;;;17.30;93.60;;;;;;5109101;28;20111;-77
2021/08/27 01:29:48;;;;;;;18.05;8.27;;;17.30;93.80;;;;;;5109288;28;20047;-77
2021/08/27 01:32:22;;;;;;;19.77;8.18;;;17.20;94.00;;;;;;5109185;28;20030;-78
2021/08/27 01:34:50;;;;;;;16.55;8.38;;;17.20;94.10;;;;;;5108940;28;20027;-76
2021/08/27 01:37:19;;;;;;;18.20;7.75;;;17.10;94.10;;;;;;5108857;28;20023;-76
2021/08/27 01:40:04;;;;;;;17.42;8.05;;;17.10;94.20;;;;;;5107747;28;20062;-77
2021/08/27 01:42:31;;;;;;;15.40;7.03;;;17.10;94.30;;;;;;5109077;28;20073;-77
2021/08/27 01:44:59;;;;;;;16.05;7.28;;;17.10;94.10;;;;;;5090679;28;20474;-78
2021/08/27 01:47:32;;;;;;;15.07;7.10;;;17.10;94.10;;;;;;5090448;28;20034;-77
2021/08/27 01:50:00;;;;;;;17.88;7.55;;;17.00;94.30;;;;;;5108714;28;20019;-77
2021/08/27 01:52:26;;;;;;;23.10;8.55;;;17.00;94.30;;;;;;5090458;28;20031;-78
2021/08/27 01:54:54;;;;;;;17.40;7.72;;;16.90;94.30;;;;;;5108700;28;20406;-76
2021/08/27 01:57:20;;;;;;;16.40;7.45;;;16.90;94.40;;;;;;5090346;28;20383;-77
2021/08/27 01:59:45;;;;;;;19.08;9.15;;;16.90;94.50;;;;;;5090356;28;20033;-77
2021/08/27 02:02:13;;;;;;;18.52;7.85;;;16.90;94.50;;;;;;5073543;28;20058;-78
2021/08/27 02:04:41;;;;;;;16.45;7.95;;;16.90;94.60;;;;;;5108427;28;20016;-78
2021/08/27 02:07:09;;;;;;;17.88;7.53;;;16.90;94.70;;;;;;5090063;28;20454;-77
2021/08/27 02:09:36;;;;;;;15.50;7.70;;;16.90;94.60;;;;;;5090147;28;20092;-78
2021/08/27 02:12:03;;;;;;;18.63;8.63;;;16.80;94.60;;;;;;5090182;28;20078;-77
2021/08/27 02:14:29;;;;;;;16.23;7.75;;;16.80;94.70;;;;;;5090204;28;20133;-77
2021/08/27 02:16:55;;;;;;;21.10;8.40;;;16.80;94.80;;;;;;5108242;28;20426;-75
2021/08/27 02:19:21;;;;;;;19.15;7.57;;;16.80;94.80;;;;;;5090105;28;20110;-76
2021/08/27 02:21:52;;;;;;;16.63;7.28;;;16.80;94.90;;;;;;5108283;28;20068;-76
2021/08/27 02:24:22;;;;;;;20.48;8.10;;;16.80;95.10;;;;;;5108148;28;20137;-77
2021/08/27 02:26:49;;;;;;;19.45;8.73;;;16.90;95.10;;;;;;5108073;28;20623;-77
2021/08/27 02:29:18;;;;;;;21.17;9.65;;;17.00;95.00;;;;;;5090034;28;20023;-78
2021/08/27 02:31:49;;;;;;;19.02;7.50;;;17.10;95.10;;;;;;5089723;28;20452;-76
2021/08/27 02:34:17;;;;;;;19.70;9.32;;;17.20;95.10;;;;;;5108056;28;20027;-77
2021/08/27 02:36:45;;;;;;;20.45;8.63;;;17.20;95.10;;;;;;5089613;28;20024;-77
2021/08/27 02:39:14;;;;;;;21.35;9.98;;;17.30;95.20;;;;;;5107815;28;20076;-77
2021/08/27 02:41:40;;;;;;;27.85;10.43;;;17.30;95.30;;;;;;5107939;28;20032;-77
2021/08/27 02:44:05;;;;;;;23.42;8.88;;;17.30;95.30;;;;;;5089829;28;20031;-77
2021/08/27 02:46:31;;;;;;;21.23;9.82;;;17.30;95.40;;;;;;5107852;28;20028;-76
2021/08/27 02:48:57;;;;;;;25.38;10.10;;;17.40;95.50;;;;;;5108160;28;20056;-77
2021/08/27 02:51:33;;;;;;;23.52;9.32;;;17.50;95.50;;;;;;5107628;28;20038;-78
2021/08/27 02:54:05;;;;;;;17.33;9.20;;;17.60;95.50;;;;;;5089576;28;20020;-77
2021/08/27 02:56:35;;;;;;;20.88;8.80;;;17.60;95.40;;;;;;5089583;28;20020;-77
2021/08/27 02:59:04;;;;;;;17.80;8.70;;;17.70;95.50;;;;;;5107851;28;20015;-77
2021/08/27 03:01:40;;;;;;;19.08;8.80;;;17.70;95.40;;;;;;5107842;28;20459;-78
2021/08/27 03:04:48;;;;;;;24.33;9.88;;;17.80;95.50;;;;;;5090835;28;20050;-76
2021/08/27 03:07:15;;;;;;;;;;;17.80;95.50;;;;;;5073605;28;20150;-79
2021/08/27 03:10:02;;;;;;;23.00;10.00;;;17.90;95.40;;;;;;5107776;28;19915;-77
2021/08/27 03:12:52;;;;;;;25.75;10.43;;;17.90;95.40;;;;;;5107723;28;20096;-78
2021/08/27 03:15:50;;;;;;;24.00;9.90;;;17.90;95.40;;;;;;5089290;28;20033;-77
2021/08/27 03:18:24;;;;;;;25.35;10.35;;;17.80;95.40;;;;;;5075860;28;20501;-76
2021/08/27 03:21:03;;;;;;;23.83;9.52;;;17.80;95.50;;;;;;5107481;28;20043;-76
2021/08/27 03:23:32;;;;;;;21.80;9.60;;;17.80;95.60;;;;;;5107614;28;20035;-77
2021/08/27 03:26:02;;;;;;;22.25;9.30;;;17.70;95.60;;;;;;5107572;28;20032;-76
2021/08/27 03:28:31;;;;;;;23.33;9.85;;;17.70;95.80;;;;;;5107461;28;20007;-78
2021/08/27 03:30:57;;;;;;;17.33;8.05;;;17.70;95.90;;;;;;5107415;28;20035;-77
2021/08/27 03:33:25;;;;;;;16.85;7.65;;;17.80;95.80;;;;;;5107435;28;20043;-76
2021/08/27 03:35:52;;;;;;;18.15;7.97;;;17.80;95.80;;;;;;5089181;28;20386;-78
2021/08/27 03:38:19;;;;;;;21.90;8.40;;;17.80;95.80;;;;;;5107385;28;20030;-76
2021/08/27 03:40:46;;;;;;;18.83;8.48;;;17.80;95.80;;;;;;5072151;28;20533;-79
2021/08/27 03:43:13;;;;;;;30.92;10.25;;;17.80;95.60;;;;;;5107505;28;20042;-77
2021/08/27 03:45:40;;;;;;;23.40;8.20;;;17.70;95.60;;;;;;5072509;28;20414;-78
2021/08/27 03:48:06;;;;;;;22.17;9.32;;;17.70;95.80;;;;;;5089175;28;20051;-76
2021/08/27 03:50:32;;;;;;;19.05;8.27;;;17.80;95.90;;;;;;5107385;28;20512;-77
2021/08/27 03:52:59;;;;;;;23.63;9.27;;;17.70;95.90;;;;;;5107316;28;20381;-78
2021/08/27 03:55:27;;;;;;;22.38;9.18;;;17.70;95.90;;;;;;5107486;28;20038;-77
2021/08/27 03:57:55;;;;;;;21.13;8.98;;;17.70;95.90;;;;;;5107145;28;20033;-77
2021/08/27 04:00:23;;;;;;;20.35;9.18;;;17.60;95.90;;;;;;5106990;28;20032;-77
2021/08/27 04:02:51;;;;;;;25.73;9.90;;;17.50;96.00;;;;;;5107701;28;20505;-75
2021/08/27 04:05:19;;;;;;;23.38;9.50;;;17.60;96.10;;;;;;5092435;28;20036;-78
2021/08/27 04:07:46;;;;;;;24.13;10.38;;;17.60;96.10;;;;;;5092622;28;20023;-76
2021/08/27 04:10:14;;;;;;;24.90;10.68;;;17.70;96.00;;;;;;5110955;28;20386;-76
2021/08/27 04:12:40;;;;;;;22.98;10.20;;;17.60;96.00;;;;;;5092712;28;20028;-77
2021/08/27 04:15:11;;;;;;;22.48;9.57;;;17.60;96.10;;;;;;5092525;28;20085;-77
2021/08/27 04:17:38;;;;;;;27.02;10.57;;;17.60;96.10;;;;;;5110534;28;20024;-76
2021/08/27 04:20:06;;;;;;;23.33;9.95;;;17.60;96.00;;;;;;5110399;28;20027;-76
2021/08/27 04:22:32;;;;;;;23.23;9.65;;;17.60;96.10;;;;;;5092092;28;20540;-77
2021/08/27 04:24:58;;;;;;;26.52;9.73;;;17.60;96.10;;;;;;5092201;28;20299;-77
2021/08/27 04:27:23;;;;;;;23.30;10.02;;;17.70;96.10;;;;;;5110368;28;20057;-77
2021/08/27 04:29:50;;;;;;;25.55;9.55;;;17.70;96.00;;;;;;5092083;28;20110;-76
2021/08/27 04:32:17;;;;;;;20.65;9.18;;;17.80;95.80;;;;;;5110296;28;20100;-77
2021/08/27 04:34:42;;;;;;;21.02;9.02;;;17.90;95.80;;;;;;5091817;28;20024;-78
2021/08/27 04:37:08;;;;;;;21.60;10.02;;;17.90;95.70;;;;;;5110139;28;20028;-78
2021/08/27 04:39:34;;;;;;;22.67;8.73;;;17.90;95.60;;;;;;5091676;28;20083;-78
2021/08/27 04:42:01;;;;;;;22.08;10.38;;;17.90;95.60;;;;;;5091929;28;20027;-77
2021/08/27 04:44:27;;;;;;;18.58;8.45;;;17.90;95.50;;;;;;5110161;28;20025;-78
2021/08/27 04:46:53;;;;;;;24.27;10.35;;;17.90;95.50;;;;;;5091641;28;20393;-78
2021/08/27 04:49:19;;;;;;;21.45;9.05;;;17.90;95.40;;;;;;5074880;28;20183;-77
2021/08/27 04:51:44;;;;;;;25.00;10.07;;;18.00;95.30;;;;;;5091783;28;20080;-77
2021/08/27 04:54:10;;;;;;;21.05;9.70;;;17.90;95.20;;;;;;5091756;28;20032;-77
2021/08/27 04:56:36;;;;;;;23.67;9.82;;;17.80;95.30;;;;;;5091686;28;20042;-75
2021/08/27 04:59:01;;;;;;;24.90;10.50;;;17.80;95.30;;;;;;5091634;28;20482;-79
2021/08/27 05:01:27;;;;;;;24.90;10.38;;;17.90;95.40;;;;;;5109736;28;20614;-79
2021/08/27 05:03:53;;;;;;;27.70;11.32;;;17.90;95.30;;;;;;5109616;28;20031;-78
2021/08/27 05:06:19;;;;;;;25.52;10.48;;;17.80;95.40;;;;;;5109584;28;20028;-77
2021/08/27 05:08:45;;;;;;;26.23;11.30;;;17.90;95.30;;;;;;5091275;28;20108;-79
2021/08/27 05:11:10;;;;;;;23.17;9.65;;;17.80;95.30;;;;;;5109498;28;20031;-78
2021/08/27 05:13:36;;;;;;;21.63;9.48;;;17.80;95.40;;;;;;5109411;28;20031;-79
2021/08/27 05:16:02;;;;;;;28.30;10.52;;;17.70;95.50;;;;;;5109514;28;20019;-78
2021/08/27 05:18:29;;;;;;;24.73;9.35;;;17.60;95.60;;;;;;5074233;28;20490;-78
2021/08/27 05:20:56;;;;;;;23.40;10.48;;;17.50;95.80;;;;;;5074344;28;20059;-78
2021/08/27 05:23:22;;;;;;;22.05;9.82;;;17.50;95.80;;;;;;5109394;28;20027;-78
2021/08/27 05:25:48;;;;;;;25.23;10.88;;;17.50;95.80;;;;;;5109117;28;20027;-77
2021/08/27 05:28:13;;;;;;;22.10;9.15;;;17.50;95.80;;;;;;5090729;28;20038;-77
2021/08/27 05:30:39;;;;;;;20.55;8.98;;;17.40;95.90;;;;;;5090846;28;20035;-77
2021/08/27 05:33:05;;;;;;;22.92;9.10;;;17.50;96.00;;;;;;5109085;28;20028;-77
2021/08/27 05:35:31;;;;;;;22.42;9.45;;;17.50;95.80;;;;;;5073937;28;20334;-76
2021/08/27 05:37:57;;;;;;;23.27;9.63;;;17.50;95.80;;;;;;5108940;28;20483;-77
2021/08/27 05:40:23;;;;;;;20.95;9.90;;;17.60;95.80;;;;;;5090377;28;20083;-77
2021/08/27 05:42:48;;;;;;;17.10;8.63;;;17.60;95.70;;;;;;5108901;28;20074;-76
2021/08/27 05:45:15;;;;;;;22.55;9.02;;;17.60;95.60;;;;;;5090504;28;20355;-77
2021/08/27 05:47:42;;;;;;;20.73;8.45;;;17.60;95.60;;;;;;5108697;28;20020;-77
2021/08/27 05:50:10;;;;;;;24.90;10.13;;;17.70;95.50;;;;;;5090534;28;20398;-77
2021/08/27 05:52:36;;;;;;;20.83;9.10;;;17.70;95.60;;;;;;5090172;28;20119;-77
2021/08/27 05:55:03;;;;;;;;;;;17.80;95.60;;;;;;5090975;28;20113;-77
2021/08/27 05:57:29;;;;;;;23.55;10.75;;;17.80;95.40;;;;;;5090070;28;20282;-76
2021/08/27 05:59:54;;;;;;;28.38;9.95;;;17.80;95.30;;;;;;5108482;28;20032;-77
2021/08/27 06:02:20;;;;;;;26.10;9.68;;;17.80;95.40;;;;;;5108415;28;20028;-76
2021/08/27 06:04:46;;;;;;;26.42;9.85;;;17.80;95.40;;;;;;5073471;28;20031;-77
2021/08/27 06:07:12;;;;;;;22.48;9.15;;;17.80;95.50;;;;;;5108452;28;20028;-77
2021/08/27 06:09:38;;;;;;;25.00;10.75;;;17.90;95.40;;;;;;5108407;28;20032;-76
2021/08/27 06:12:04;;;;;;;;;;;18.00;95.30;;;;;;5073721;28;20034;-76
2021/08/27 06:14:30;;;;;;;54.38;12.48;;;18.10;95.20;;;;;;5108246;28;20289;-78
2021/08/27 06:16:55;;;;;;;27.17;10.13;;;18.10;95.10;;;;;;5108158;28;20027;-77
2021/08/27 06:19:21;;;;;;;22.98;10.00;;;18.10;95.20;;;;;;5089784;28;20114;-76
2021/08/27 06:21:47;;;;;;;22.55;9.77;;;18.10;95.20;;;;;;5108055;28;20484;-78
2021/08/27 06:24:12;;;;;;;25.52;10.55;;;18.10;95.20;;;;;;5089819;28;20069;-77
2021/08/27 06:26:38;;;;;;;22.77;11.13;;;18.10;95.30;;;;;;5089210;28;20032;-76
2021/08/27 06:29:04;;;;;;;23.80;10.70;;;18.10;95.20;;;;;;5089580;28;20521;-77
2021/08/27 06:31:30;;;;;;;;;;;18.10;95.20;;;;;;5090033;28;20032;-78
2021/08/27 06:33:56;;;;;;;24.20;11.43;;;18.10;95.10;;;;;;5089830;28;19916;-77
2021/08/27 06:36:22;;;;;;;20.38;10.98;;;18.20;95.10;;;;;;5089739;28;20028;-77
2021/08/27 06:38:47;;;;;;;25.52;11.95;;;18.20;95.00;;;;;;5107732;28;20036;-76
2021/08/27 06:41:13;;;;;;;21.92;10.55;;;18.30;94.90;;;;;;5072971;28;20035;-76
2021/08/27 06:43:41;;;;;;;;;;;18.40;94.80;;;;;;5090013;28;20535;-77
2021/08/27 06:46:09;;;;;;;20.75;10.65;;;18.40;94.70;;;;;;5107655;28;20230;-78
2021/08/27 06:48:36;;;;;;;23.42;10.85;;;18.40;94.60;;;;;;5107589;28;20066;-77
2021/08/27 06:51:01;;;;;;;;;;;18.40;94.60;;;;;;5073277;28;20505;-77
2021/08/27 06:53:27;;;;;;;24.73;11.40;;;18.40;94.70;;;;;;5107808;28;19911;-77
2021/08/27 06:55:53;;;;;;;22.55;10.07;;;18.50;94.50;;;;;;5089208;28;20036;-76
2021/08/27 06:58:19;;;;;;;21.73;10.93;;;18.50;94.30;;;;;;5072467;28;20393;-78
2021/08/27 07:00:45;;;;;;;;;;;18.50;94.20;;;;;;5108092;28;20032;-78
2021/08/27 07:03:11;;;;;;;20.52;10.13;;;18.50;94.20;;;;;;5089596;28;20332;-76
2021/08/27 07:05:37;;;;;;;23.10;11.00;;;18.50;94.20;;;;;;5107648;28;20549;-78
2021/08/27 07:08:03;;;;;;;27.80;11.45;;;18.60;94.20;;;;;;5088888;28;20091;-77
2021/08/27 07:10:29;;;;;;;21.92;9.88;;;18.60;94.20;;;;;;5107338;28;20355;-77
2021/08/27 07:12:55;;;;;;;;;;;18.70;94.10;;;;;;5107790;28;20077;-77
2021/08/27 07:15:22;;;;;;;22.30;11.25;;;18.90;94.00;;;;;;5089114;28;20430;-76
2021/08/27 07:17:48;;;;;;;18.92;9.57;;;18.90;93.80;;;;;;5072077;28;20039;-79
2021/08/27 07:20:13;;;;;;;;;;;19.00;93.90;;;;;;5089504;28;20247;-77
2021/08/27 07:22:40;;;;;;;20.13;9.90;;;19.10;93.90;;;;;;5107428;28;20411;-77
2021/08/27 07:25:07;;;;;;;22.20;11.13;;;19.40;93.80;;;;;;5107719;28;20023;-77
2021/08/27 07:27:32;;;;;;;23.58;10.60;;;19.50;93.30;;;;;;5071805;28;20084;-77
2021/08/27 07:29:58;;;;;;;23.05;10.55;;;19.60;93.00;;;;;;5106771;28;20515;-75
2021/08/27 07:32:23;;;;;;;20.33;10.50;;;19.60;93.00;;;;;;5106766;28;20040;-77
2021/08/27 07:34:50;;;;;;;20.60;9.63;;;19.80;93.00;;;;;;5088655;28;20035;-79
2021/08/27 07:37:16;;;;;;;19.45;9.20;;;20.30;92.70;;;;;;5088887;28;20047;-77
2021/08/27 07:39:41;;;;;;;;;;;20.70;92.10;;;;;;5092351;28;20077;-78
2021/08/27 07:42:08;;;;;;;18.20;8.95;;;20.90;92.10;;;;;;5092610;28;19955;-77
2021/08/27 07:44:34;;;;;;;16.27;8.18;;;21.00;91.20;;;;;;5110948;28;20035;-77
2021/08/27 07:47:01;;;;;;;15.98;8.30;;;21.40;91.70;;;;;;5110730;28;20410;-77
2021/08/27 07:49:26;;;;;;;18.00;9.05;;;21.70;90.60;;;;;;5092314;28;20115;-76
2021/08/27 07:51:53;;;;;;;;;;;21.80;90.40;;;;;;5093196;28;20099;-77
2021/08/27 07:54:20;;;;;;;17.35;8.18;;;22.40;90.60;;;;;;5092387;28;19960;-76
2021/08/27 07:56:46;;;;;;;14.23;8.00;;;22.70;89.70;;;;;;5110207;28;20028;-76
2021/08/27 07:59:12;;;;;;;15.98;7.18;;;23.20;88.90;;;;;;5092373;28;20039;-77
2021/08/27 08:01:38;;;;;;;13.20;7.07;;;24.20;88.10;;;;;;5110708;28;20023;-77
2021/08/27 08:04:05;;;;;;;16.33;7.75;;;25.20;84.70;;;;;;5110656;28;20060;-77
2021/08/27 08:06:31;;;;;;;17.00;7.65;;;25.50;81.60;;;;;;5110785;28;20482;-77
2021/08/27 08:08:58;;;;;;;16.60;7.68;;;25.60;80.60;;;;;;5110740;28;20076;-77
2021/08/27 08:11:24;;;;;;;20.85;8.73;;;25.70;79.30;;;;;;5092069;28;20503;-77
2021/08/27 08:13:50;;;;;;;17.98;8.20;;;26.00;78.20;;;;;;5110179;28;20031;-77
2021/08/27 08:16:16;;;;;;;16.58;9.05;;;26.60;77.70;;;;;;5110193;28;20039;-76
2021/08/27 08:18:41;;;;;;;14.70;8.48;;;27.20;75.20;;;;;;5110219;28;20031;-77
2021/08/27 08:21:07;;;;;;;15.65;7.80;;;27.70;73.90;;;;;;5109995;28;20032;-77
2021/08/27 08:23:34;;;;;;;15.32;7.30;;;28.60;72.60;;;;;;5091994;28;20024;-76
2021/08/27 08:26:01;;;;;;;13.90;7.88;;;28.70;70.00;;;;;;5091859;28;20032;-78
2021/08/27 08:28:27;;;;;;;12.88;7.15;;;28.60;68.10;;;;;;5110108;28;20015;-77
2021/08/27 08:30:53;;;;;;;15.65;7.57;;;28.20;67.30;;;;;;5109784;28;20032;-77
2021/08/27 08:33:19;;;;;;;13.98;6.90;;;27.80;67.10;;;;;;5109754;28;20024;-76
2021/08/27 08:35:46;;;;;;;11.80;7.20;;;27.40;67.10;;;;;;5092049;28;20031;-76
2021/08/27 08:38:11;;;;;;;14.40;7.45;;;26.90;67.50;;;;;;5109630;28;20028;-75
2021/08/27 08:40:45;;;;;;;12.32;6.50;;;26.60;68.10;;;;;;5091027;28;20089;-77
2021/08/27 08:43:12;;;;;;;14.10;7.25;;;26.70;68.30;;;;;;5109739;28;20069;-78
2021/08/27 08:45:46;;;;;;;14.45;7.32;;;26.70;67.70;;;;;;5109736;28;20470;-75
2021/08/27 08:48:17;;;;;;;12.00;6.40;;;27.00;68.40;;;;;;5109504;28;20069;-77
2021/08/27 08:50:44;;;;;;;15.52;6.72;;;27.70;68.40;;;;;;5109593;28;20054;-77
2021/08/27 08:53:12;;;;;;;9.98;6.55;;;28.30;67.30;;;;;;5109295;28;20062;-78
2021/08/27 08:55:41;;;;;;;15.38;8.98;;;29.20;66.40;;;;;;5109051;28;20412;-77
2021/08/27 08:58:07;;;;;;;12.80;7.15;;;30.10;65.00;;;;;;5109098;28;20382;-77
2021/08/27 09:00:34;;;;;;;14.32;7.03;;;30.60;63.60;;;;;;5090722;28;20027;-77
2021/08/27 09:03:00;;;;;;;11.90;6.57;;;31.30;62.30;;;;;;5109134;28;20159;-77
2021/08/27 09:05:26;;;;;;;14.85;7.30;;;31.80;61.00;;;;;;5109222;28;20031;-77
2021/08/27 09:07:55;;;;;;;12.00;6.35;;;31.70;59.70;;;;;;5090811;28;20366;-77
2021/08/27 09:10:23;;;;;;;13.38;7.15;;;31.40;59.00;;;;;;5108887;28;20023;-78
2021/08/27 09:13:04;;;;;;;16.67;7.63;;;31.30;59.10;;;;;;5109877;28;20512;-76
2021/08/27 09:15:29;;;;;;;13.27;7.40;;;31.10;58.50;;;;;;5108543;28;20038;-77
2021/08/27 09:17:55;;;;;;;11.65;6.65;;;30.90;58.60;;;;;;5075349;28;20156;-78
2021/08/27 09:20:24;;;;;;;17.33;6.90;;;31.10;58.50;;;;;;5110565;28;20069;-80
2021/08/27 09:22:56;;;;;;;10.77;6.90;;;31.40;57.80;;;;;;5092059;28;20043;-78
2021/08/27 09:25:24;;;;;;;11.73;7.03;;;31.90;57.20;;;;;;5092239;28;20509;-78
2021/08/27 09:28:03;;;;;;;12.75;6.95;;;32.20;56.80;;;;;;5088507;28;20368;-77
2021/08/27 09:30:34;;;;;;;14.77;7.05;;;32.50;56.30;;;;;;5089795;28;20031;-78
2021/08/27 09:33:12;;;;;;;11.07;6.75;;;32.80;55.50;;;;;;5108622;28;20040;-79
2021/08/27 09:35:38;;;;;;;11.63;6.43;;;33.00;54.80;;;;;;5109665;28;20497;-79
2021/08/27 09:38:13;;;;;;;15.43;6.82;;;33.30;54.80;;;;;;5109950;28;20544;-78
2021/08/27 09:40:39;;;;;;;10.20;6.20;;;33.50;53.70;;;;;;5110102;28;20039;-79
2021/08/27 09:43:06;;;;;;;12.20;5.90;;;33.70;53.40;;;;;;5091820;28;20050;-78
2021/08/27 09:45:34;;;;;;;12.10;5.63;;;33.90;52.80;;;;;;5074940;28;20023;-78
2021/08/27 09:48:09;;;;;;;12.30;5.32;;;33.90;52.50;;;;;;5109805;28;20023;-79
2021/08/27 09:50:37;;;;;;;12.13;4.97;;;33.90;52.60;;;;;;5090810;28;20039;-79
2021/08/27 09:53:08;;;;;;;12.13;5.30;;;33.90;52.50;;;;;;5109089;28;20039;-78
2021/08/27 09:55:38;;;;;;;8.55;5.43;;;33.90;51.80;;;;;;5110261;28;20034;-79
2021/08/27 09:58:23;;;;;;;10.13;4.57;;;34.00;52.20;;;;;;5074214;28;20040;-80
2021/08/27 10:01:00;;;;;;;8.48;4.95;;;34.00;51.60;;;;;;5108685;28;20110;-78
2021/08/27 10:03:26;;;;;;;8.10;4.40;;;34.20;51.50;;;;;;5091392;28;20024;-79
2021/08/27 10:05:54;;;;;;;9.60;4.68;;;34.20;50.80;;;;;;5090924;28;20110;-81
2021/08/27 10:08:22;;;;;;;9.20;4.13;;;34.20;50.60;;;;;;5091780;28;20059;-81
2021/08/27 10:10:51;;;;;;;11.43;4.35;;;34.30;50.30;;;;;;5091434;28;20027;-79
2021/08/27 10:13:17;;;;;;;9.80;4.30;;;34.00;50.20;;;;;;5091072;28;20093;-80
2021/08/27 10:15:43;;;;;;;10.80;4.55;;;34.10;50.40;;;;;;5091673;28;20027;-80
2021/08/27 10:18:10;;;;;;;13.05;4.20;;;34.40;49.80;;;;;;5091205;28;20028;-78
2021/08/27 10:20:38;;;;;;;9.52;4.38;;;34.60;49.70;;;;;;5109843;28;20027;-77
2021/08/27 10:23:06;;;;;;;9.30;4.25;;;34.90;49.60;;;;;;5109618;28;20024;-79
2021/08/27 10:25:32;;;;;;;9.27;3.40;;;35.30;49.20;;;;;;5091101;28;20027;-78
2021/08/27 10:27:58;;;;;;;9.50;3.78;;;35.60;48.60;;;;;;5090580;28;20429;-77
2021/08/27 10:30:50;;;;;;;12.63;4.03;;;35.80;48.40;;;;;;5057169;28;20055;-77
2021/08/27 10:33:43;;;;;;;10.43;3.95;;;35.90;47.50;;;;;;5091254;28;20031;-84
2021/08/27 10:36:11;;;;;;;10.80;4.13;;;35.70;46.90;;;;;;5075458;28;20043;-82
2021/08/27 10:38:52;;;;;;;8.30;3.40;;;35.30;47.30;;;;;;5092014;28;20062;-82
2021/08/27 10:41:21;;;;;;;10.73;4.22;;;35.20;47.80;;;;;;5109815;28;20038;-82
2021/08/27 10:44:02;;;;;;;7.90;4.35;;;35.00;47.40;;;;;;5109702;28;20018;-81
2021/08/27 10:46:46;;;;;;;7.22;3.20;;;34.60;47.90;;;;;;5111351;28;20051;-81
2021/08/27 10:49:12;;;;;;;9.57;3.72;;;34.60;48.30;;;;;;5110420;28;20085;-83
2021/08/27 10:51:40;;;;;;;9.88;4.18;;;34.80;48.30;;;;;;5109734;28;20016;-81
2021/08/27 10:54:07;;;;;;;7.60;3.95;;;34.90;47.90;;;;;;5091254;28;20024;-83
2021/08/27 10:57:05;;;;;;;9.95;3.40;;;35.10;47.50;;;;;;5109279;28;20040;-75
2021/08/27 10:59:37;;;;;;;9.23;3.75;;;35.00;47.60;;;;;;5104490;28;20042;-79
2021/08/27 11:02:04;;;;;;;5.90;3.22;;;34.90;47.90;;;;;;5108677;28;20054;-77
2021/08/27 11:04:43;;;;;;;8.23;3.40;;;35.20;47.90;;;;;;5108742;28;20076;-80
2021/08/27 11:07:18;;;;;;;6.25;3.83;;;35.40;47.50;;;;;;5108777;28;20024;-80
2021/08/27 11:10:14;;;;;;;8.88;3.95;;;35.50;46.90;;;;;;5090981;28;20028;-79
2021/08/27 11:12:40;;;;;;;8.25;3.55;;;35.40;47.10;;;;;;5110794;28;20089;-77
2021/08/27 11:15:30;;;;;;;10.43;3.47;;;35.30;47.40;;;;;;5077006;28;20474;-81
2021/08/27 11:18:04;;;;;;;6.82;3.50;;;35.50;47.30;;;;;;5102508;28;20036;-80
2021/08/27 11:20:30;;;;;;;6.88;3.55;;;35.50;46.90;;;;;;5111861;28;20385;-79
2021/08/27 11:22:56;;;;;;;8.32;3.70;;;35.50;47.10;;;;;;5094221;28;20118;-80
2021/08/27 11:25:23;;;;;;;8.50;3.65;;;35.50;46.50;;;;;;5094003;28;20154;-79
2021/08/27 11:28:28;;;;;;;10.23;3.60;;;35.40;45.80;;;;;;5093279;28;20032;-76
2021/08/27 11:31:10;;;;;;;10.32;3.65;;;35.20;46.10;;;;;;5008878;28;20498;-79
2021/08/27 11:33:51;;;;;;;7.00;3.55;;;35.00;46.60;;;;;;5009170;28;20026;-80
2021/08/27 11:36:19;;;;;;;10.60;4.60;;;35.00;46.80;;;;;;5062980;28;20394;-80
2021/08/27 11:38:51;;;;;;;8.90;4.13;;;35.00;46.70;;;;;;5113015;28;20047;-82
2021/08/27 11:41:17;;;;;;;10.30;3.70;;;35.00;46.00;;;;;;5094471;28;20036;-81
2021/08/27 11:43:50;;;;;;;7.97;3.65;;;34.80;46.00;;;;;;5106983;28;20368;-80
2021/08/27 11:46:25;;;;;;;7.20;3.13;;;34.40;46.20;;;;;;5110951;28;20027;-80
2021/08/27 11:49:04;;;;;;;8.65;3.20;;;34.10;46.50;;;;;;5093944;28;20071;-80
2021/08/27 11:51:35;;;;;;;7.72;3.63;;;34.30;47.00;;;;;;5112287;28;20038;-80
2021/08/27 11:54:21;;;;;;;8.75;3.45;;;34.70;46.70;;;;;;5112023;28;20039;-78
2021/08/27 11:56:55;;;;;;;;;;;34.80;46.40;;;;;;5108073;28;20031;-77
2021/08/27 11:59:22;;;;;;;7.75;3.83;;;34.90;47.20;;;;;;5109791;28;19910;-79
2021/08/27 12:01:48;;;;;;;7.78;3.50;;;34.80;46.60;;;;;;5076477;28;20058;-80
2021/08/27 12:04:34;;;;;;;9.85;3.70;;;34.70;46.30;;;;;;5094189;28;20453;-80
2021/08/27 12:07:07;;;;;;;11.88;3.53;;;34.60;46.20;;;;;;5107151;28;20039;-80
2021/08/27 12:09:34;;;;;;;7.72;4.25;;;34.60;46.30;;;;;;5111311;28;20036;-79
2021/08/27 12:11:59;;;;;;;8.55;3.65;;;34.50;46.10;;;;;;5092631;28;20024;-79
2021/08/27 12:14:48;;;;;;;9.38;3.50;;;34.50;46.30;;;;;;5075184;28;20031;-79
2021/08/27 12:17:27;;;;;;;8.73;3.55;;;34.50;46.30;;;;;;5085120;28;20421;-83
2021/08/27 12:19:55;;;;;;;8.68;3.58;;;34.50;46.10;;;;;;5109115;28;20023;-80
2021/08/27 12:22:24;;;;;;;8.43;3.97;;;34.30;45.90;;;;;;5112164;28;20023;-78
2021/08/27 12:24:52;;;;;;;12.20;3.83;;;34.10;46.10;;;;;;5092145;28;20028;-79
2021/08/27 12:27:18;;;;;;;9.15;3.30;;;34.00;46.20;;;;;;5092993;28;20114;-78
2021/08/27 12:29:44;;;;;;;8.32;3.67;;;33.80;46.40;;;;;;5093242;28;20023;-78
2021/08/27 12:32:15;;;;;;;8.63;3.55;;;33.80;46.40;;;;;;5111680;28;20030;-78
2021/08/27 12:34:46;;;;;;;8.13;3.28;;;33.40;46.30;;;;;;5092711;28;20446;-77
2021/08/27 12:37:13;;;;;;;8.82;3.15;;;33.30;46.60;;;;;;5111699;28;20550;-77
2021/08/27 12:39:39;;;;;;;6.68;3.17;;;33.10;46.60;;;;;;5110553;28;20481;-77
2021/08/27 12:42:16;;;;;;;8.02;3.45;;;32.80;46.80;;;;;;5111064;28;20386;-74
2021/08/27 12:45:00;;;;;;;8.13;3.75;;;32.80;47.00;;;;;;5093454;28;20074;-76
2021/08/27 12:47:30;;;;;;;9.35;3.97;;;32.90;47.00;;;;;;5092676;28;20042;-77
2021/08/27 12:50:04;;;;;;;9.65;3.38;;;33.00;46.70;;;;;;5110809;28;20047;-82
2021/08/27 12:52:30;;;;;;;8.80;3.55;;;32.80;46.70;;;;;;5093147;28;20515;-77